createdAt,value
2022-09-28T00:01:17.454Z,98358.92
2022-09-28T00:03:45.139Z,98358.45
2022-09-28T00:06:14.176Z,98359.19
2022-09-28T00:08:41.072Z,98359.02
2022-09-28T00:11:11.733Z,98356.31
2022-09-28T00:13:38.648Z,98356.14
2022-09-28T00:16:09.836Z,98354.55
2022-09-28T00:18:36.806Z,98352.70
2022-09-28T00:21:05.138Z,98352.91
2022-09-28T00:23:33.197Z,98349.73
2022-09-28T00:26:04.815Z,98348.15
2022-09-28T00:28:32.359Z,98346.55
2022-09-28T00:30:59.619Z,98344.66
2022-09-28T00:33:26.312Z,98347.70
2022-09-28T00:35:58.048Z,98347.05
2022-09-28T00:38:28.814Z,98347.04
2022-09-28T00:40:55.842Z,98347.00
2022-09-28T00:43:23.521Z,98345.56
2022-09-28T00:46:10.192Z,98341.41
2022-09-28T00:48:40.438Z,98339.88
2022-09-28T00:51:11.314Z,98341.36
2022-09-28T00:53:42.861Z,98348.01
2022-09-28T00:56:16.895Z,98346.27
2022-09-28T00:58:46.621Z,98347.52
2022-09-28T01:01:13.723Z,98352.96
2022-09-28T01:03:44.742Z,98350.58
2022-09-28T01:06:20.663Z,98352.36
2022-09-28T01:08:51.325Z,98353.21
2022-09-28T01:11:19.192Z,98346.53
2022-09-28T01:13:50.811Z,98345.30
2022-09-28T01:16:31.433Z,98349.39
2022-09-28T01:19:11.018Z,98352.79
2022-09-28T01:21:51.196Z,98348.80
2022-09-28T01:24:30.840Z,98344.60
2022-09-28T01:27:05.366Z,98344.06
2022-09-28T01:29:47.260Z,98337.66
2022-09-28T01:32:39.757Z,98331.60
2022-09-28T01:35:14.912Z,98333.85
2022-09-28T01:37:51.715Z,98332.33
2022-09-28T01:40:21.132Z,98335.98
2022-09-28T01:42:53.715Z,98339.62
2022-09-28T01:45:26.465Z,98339.46
2022-09-28T01:47:59.994Z,98338.21
2022-09-28T01:50:30.578Z,98337.06
2022-09-28T01:53:05.616Z,98339.17
2022-09-28T01:55:47.528Z,98336.69
2022-09-28T01:58:44.227Z,98332.46
2022-09-28T02:01:28.946Z,98334.60
2022-09-28T02:04:02.102Z,98334.10
2022-09-28T02:06:39.999Z,98337.79
2022-09-28T02:09:35.686Z,98336.41
2022-09-28T02:12:14.519Z,98334.30
2022-09-28T02:14:44.531Z,98332.91
2022-09-28T02:17:12.091Z,98337.64
2022-09-28T02:19:40.752Z,98332.64
2022-09-28T02:22:24.279Z,98338.31
2022-09-28T02:25:03.327Z,98343.24
2022-09-28T02:27:40.747Z,98345.84
2022-09-28T02:30:08.611Z,98347.76
2022-09-28T02:32:42.160Z,98350.05
2022-09-28T02:35:14.734Z,98353.80
2022-09-28T02:37:42.149Z,98351.39
2022-09-28T02:40:14.117Z,98349.70
2022-09-28T02:43:09.687Z,98347.41
2022-09-28T02:45:45.485Z,98346.70
2022-09-28T02:48:43.484Z,98349.73
2022-09-28T02:51:37.410Z,98352.06
2022-09-28T02:54:19.306Z,98346.25
2022-09-28T02:57:01.147Z,98344.92
2022-09-28T02:59:53.540Z,98347.56
2022-09-28T03:02:42.393Z,98352.80
2022-09-28T03:05:14.473Z,98355.42
2022-09-28T03:07:46.014Z,98355.48
2022-09-28T03:10:34.928Z,98355.35
2022-09-28T03:13:03.197Z,98356.23
2022-09-28T03:15:34.778Z,98356.04
2022-09-28T03:18:02.148Z,98357.41
2022-09-28T03:20:30.081Z,98358.44
2022-09-28T03:23:20.173Z,98357.58
2022-09-28T03:25:43.883Z,98357.48
2022-09-28T03:28:10.622Z,98363.09
2022-09-28T03:30:37.279Z,98362.70
2022-09-28T03:33:04.835Z,98361.09
2022-09-28T03:35:31.557Z,98362.34
2022-09-28T03:37:58.292Z,98360.64
2022-09-28T03:40:25.378Z,98357.39
2022-09-28T03:42:53.390Z,98360.60
2022-09-28T03:45:20.104Z,98361.66
2022-09-28T03:47:48.103Z,98364.42
2022-09-28T03:50:15.671Z,98355.47
2022-09-28T03:52:42.436Z,98352.92
2022-09-28T03:55:10.434Z,98354.19
2022-09-28T03:57:37.323Z,98357.62
2022-09-28T04:00:04.983Z,98355.35
2022-09-28T04:02:33.173Z,98354.98
2022-09-28T04:05:00.008Z,98354.63
2022-09-28T04:07:30.791Z,98354.86
2022-09-28T04:09:58.450Z,98356.16
2022-09-28T04:12:25.145Z,98356.03
2022-09-28T04:14:51.813Z,98350.95
2022-09-28T04:17:18.614Z,98348.27
2022-09-28T04:19:46.845Z,98344.27
2022-09-28T04:22:13.656Z,98345.05
2022-09-28T04:24:42.900Z,98340.21
2022-09-28T04:27:28.373Z,98331.33
2022-09-28T04:29:55.180Z,98328.60
2022-09-28T04:32:22.006Z,98327.18
2022-09-28T04:34:48.915Z,98330.58
2022-09-28T04:37:15.689Z,98335.88
2022-09-28T04:39:47.478Z,98329.80
2022-09-28T04:42:15.403Z,98328.98
2022-09-28T04:44:42.472Z,98326.22
2022-09-28T04:47:09.375Z,98325.13
2022-09-28T04:49:37.722Z,98325.46
2022-09-28T04:52:05.687Z,98326.54
2022-09-28T04:54:32.525Z,98323.79
2022-09-28T04:56:59.267Z,98321.06
2022-09-28T04:59:28.905Z,98326.51
2022-09-28T05:01:55.608Z,98326.91
2022-09-28T05:04:25.814Z,98326.23
2022-09-28T05:06:52.917Z,98325.79
2022-09-28T05:09:19.571Z,98328.14
2022-09-28T05:11:48.928Z,98323.26
2022-09-28T05:14:16.199Z,98320.81
2022-09-28T05:16:44.298Z,98319.03
2022-09-28T05:19:11.895Z,98317.10
2022-09-28T05:21:38.775Z,98321.31
2022-09-28T05:24:06.953Z,98324.35
2022-09-28T05:26:34.182Z,98322.13
2022-09-28T05:29:00.983Z,98318.09
2022-09-28T05:31:27.818Z,98325.08
2022-09-28T05:33:54.763Z,98322.76
2022-09-28T05:36:21.805Z,98321.52
2022-09-28T05:38:48.449Z,98318.59
2022-09-28T05:41:15.264Z,98314.79
2022-09-28T05:43:43.922Z,98316.33
2022-09-28T05:46:11.163Z,98317.84
2022-09-28T05:48:37.968Z,98320.30
2022-09-28T05:51:05.066Z,98320.69
2022-09-28T05:53:31.871Z,98317.19
2022-09-28T05:55:59.239Z,98321.89
2022-09-28T05:58:27.733Z,98322.77
2022-09-28T06:00:56.066Z,98323.26
2022-09-28T06:03:23.469Z,98325.67
2022-09-28T06:05:50.947Z,98325.00
2022-09-28T06:08:17.710Z,98318.02
2022-09-28T06:10:44.678Z,98324.98
2022-09-28T06:13:11.760Z,98323.19
2022-09-28T06:15:42.025Z,98323.08
2022-09-28T06:18:16.338Z,98325.98
2022-09-28T06:20:43.492Z,98327.44
2022-09-28T06:23:12.374Z,98321.50
2022-09-28T06:25:39.552Z,98321.32
2022-09-28T06:28:14.864Z,98313.09
2022-09-28T06:30:43.043Z,98313.17
2022-09-28T06:33:12.300Z,98309.08
2022-09-28T06:35:40.102Z,98309.02
2022-09-28T06:38:06.911Z,98305.73
2022-09-28T06:40:33.989Z,98305.34
2022-09-28T06:43:09.920Z,98308.77
2022-09-28T06:45:38.212Z,98303.88
2022-09-28T06:48:05.724Z,98305.27
2022-09-28T06:50:42.280Z,98308.59
2022-09-28T06:53:12.999Z,98313.00
2022-09-28T06:55:42.289Z,98309.23
2022-09-28T06:58:14.288Z,98312.63
2022-09-28T07:00:41.499Z,98312.15
2022-09-28T07:03:11.791Z,98308.63
2022-09-28T07:05:42.202Z,98314.52
2022-09-28T07:08:09.096Z,98314.86
2022-09-28T07:10:44.432Z,98316.11
2022-09-28T07:13:34.312Z,98318.77
2022-09-28T07:16:00.880Z,98322.83
2022-09-28T07:18:29.278Z,98320.41
2022-09-28T07:20:56.874Z,98325.97
2022-09-28T07:23:27.123Z,98326.77
2022-09-28T07:25:54.195Z,98329.55
2022-09-28T07:28:21.745Z,98330.98
2022-09-28T07:30:48.631Z,98330.34
2022-09-28T07:33:16.963Z,98330.91
2022-09-28T07:35:51.858Z,98335.17
2022-09-28T07:38:18.864Z,98338.85
2022-09-28T07:41:04.258Z,98337.24
2022-09-28T07:43:32.095Z,98334.56
2022-09-28T07:45:58.900Z,98339.80
2022-09-28T07:48:25.924Z,98339.67
2022-09-28T07:50:56.195Z,98339.33
2022-09-28T07:53:24.912Z,98336.90
2022-09-28T07:55:53.523Z,98335.30
2022-09-28T07:58:21.018Z,98338.89
2022-09-28T08:00:48.856Z,98336.05
2022-09-28T08:03:17.230Z,98336.02
2022-09-28T08:05:45.133Z,98338.42
2022-09-28T08:08:11.872Z,98337.29
2022-09-28T08:10:44.536Z,98339.09
2022-09-28T08:13:14.481Z,98342.83
2022-09-28T08:15:41.939Z,98342.09
2022-09-28T08:18:08.861Z,98341.89
2022-09-28T08:20:54.050Z,98341.88
2022-09-28T08:23:20.787Z,98343.81
2022-09-28T08:25:48.481Z,98341.20
2022-09-28T08:28:18.929Z,98340.33
2022-09-28T08:30:46.770Z,98341.58
2022-09-28T08:33:16.953Z,98347.05
2022-09-28T08:35:44.984Z,98349.02
2022-09-28T08:38:12.608Z,98352.30
2022-09-28T08:40:57.653Z,98356.62
2022-09-28T08:43:56.407Z,98358.80
2022-09-28T08:46:29.142Z,98359.64
2022-09-28T08:49:30.534Z,98365.48
2022-09-28T08:51:54.885Z,98361.73
2022-09-28T08:54:53.957Z,98362.85
2022-09-28T08:57:27.372Z,98363.02
2022-09-28T08:59:57.704Z,98363.64
2022-09-28T09:02:35.630Z,98363.22
2022-09-28T09:05:06.377Z,98363.45
2022-09-28T09:08:14.428Z,98364.56
2022-09-28T09:11:01.272Z,98364.34
2022-09-28T09:13:45.195Z,98369.17
2022-09-28T09:16:24.079Z,98370.32
2022-09-28T09:19:15.176Z,98367.86
2022-09-28T09:22:04.643Z,98367.50
2022-09-28T09:24:44.020Z,98369.89
2022-09-28T09:27:28.518Z,98369.74
2022-09-28T09:30:01.585Z,98376.90
2022-09-28T09:32:37.168Z,98375.70
2022-09-28T09:35:24.626Z,98377.84
2022-09-28T09:38:16.214Z,98374.37
2022-09-28T09:41:01.261Z,98376.43
2022-09-28T09:43:30.933Z,98376.94
2022-09-28T09:46:23.522Z,98381.02
2022-09-28T09:49:20.130Z,98381.39
2022-09-28T09:51:56.533Z,98384.77
2022-09-28T09:54:34.525Z,98386.23
2022-09-28T09:57:09.590Z,98389.10
2022-09-28T09:59:41.173Z,98384.73
2022-09-28T10:02:22.746Z,98379.81
2022-09-28T10:04:54.372Z,98375.96
2022-09-28T10:07:32.927Z,98370.32
2022-09-28T10:10:02.021Z,98373.89
2022-09-28T10:12:30.475Z,98368.01
2022-09-28T10:14:57.857Z,98369.31
2022-09-28T10:17:26.751Z,98370.80
2022-09-28T10:19:56.316Z,98368.85
2022-09-28T10:22:27.069Z,98372.00
2022-09-28T10:24:57.831Z,98366.41
2022-09-28T10:27:30.010Z,98362.59
2022-09-28T10:30:09.115Z,98362.10
2022-09-28T10:32:43.244Z,98363.96
2022-09-28T10:35:19.266Z,98364.04
2022-09-28T10:38:14.032Z,98363.72
2022-09-28T10:40:50.131Z,98367.27
2022-09-28T10:43:25.707Z,98370.00
2022-09-28T10:46:14.671Z,98370.30
2022-09-28T10:49:14.864Z,98367.08
2022-09-28T10:51:46.012Z,98367.39
2022-09-28T10:54:21.475Z,98366.33
2022-09-28T10:56:49.990Z,98363.98
2022-09-28T10:59:28.876Z,98357.15
2022-09-28T11:01:59.983Z,98353.36
2022-09-28T11:04:30.297Z,98348.12
2022-09-28T11:09:31.920Z,98348.17
2022-09-28T11:12:01.014Z,98346.51
2022-09-28T11:14:43.129Z,98341.42
2022-09-28T11:17:32.634Z,98343.67
2022-09-28T11:20:24.702Z,98336.45
2022-09-28T11:22:56.902Z,98338.16
2022-09-28T11:25:25.033Z,98331.34
2022-09-28T11:27:51.877Z,98333.55
2022-09-28T11:30:38.045Z,98334.14
2022-09-28T11:33:11.736Z,98331.58
2022-09-28T11:36:03.014Z,98334.20
2022-09-28T11:38:40.804Z,98332.81
2022-09-28T11:41:24.473Z,98335.92
2022-09-28T11:43:59.537Z,98339.62
2022-09-28T11:46:41.323Z,98340.37
2022-09-28T11:49:19.871Z,98334.55
2022-09-28T11:51:59.025Z,98330.55
2022-09-28T11:54:44.561Z,98327.52
2022-09-28T11:57:17.876Z,98330.89
2022-09-28T12:00:04.924Z,98331.13
2022-09-28T12:03:03.678Z,98330.96
2022-09-28T12:05:40.104Z,98329.44
2022-09-28T12:08:24.889Z,98330.55
2022-09-28T12:11:05.634Z,98331.34
2022-09-28T12:13:37.076Z,98331.37
2022-09-28T12:16:53.455Z,98328.85
2022-09-28T12:19:34.769Z,98326.38
2022-09-28T12:22:05.297Z,98327.70
2022-09-28T12:24:48.819Z,98326.75
2022-09-28T12:27:28.176Z,98331.98
2022-09-28T12:30:01.809Z,98333.52
2022-09-28T12:32:41.572Z,98332.02
2022-09-28T12:35:59.370Z,98329.77
2022-09-28T12:39:46.881Z,98328.73
2022-09-28T12:42:45.040Z,98329.16
2022-09-28T12:46:09.822Z,98329.76
2022-09-28T12:50:01.772Z,98329.00
2022-09-28T12:56:36.013Z,98326.52
2022-09-28T12:59:39.231Z,98325.23
2022-09-28T13:02:28.214Z,98325.34
2022-09-28T13:05:13.566Z,98322.94
2022-09-28T13:08:09.766Z,98323.55
2022-09-28T13:11:25.870Z,98325.20
2022-09-28T13:14:32.435Z,98327.09
2022-09-28T13:17:00.992Z,98329.52
2022-09-28T13:19:49.261Z,98333.39
2022-09-28T13:22:33.440Z,98333.48
2022-09-28T13:25:23.394Z,98335.02
2022-09-28T13:28:00.530Z,98336.02
2022-09-28T13:30:27.826Z,98339.58
2022-09-28T13:33:00.741Z,98340.61
2022-09-28T13:38:28.913Z,98341.23
2022-09-28T13:41:04.309Z,98342.43
2022-09-28T13:43:41.439Z,98345.56
2022-09-28T13:46:25.460Z,98345.39
2022-09-28T13:49:17.142Z,98344.02
2022-09-28T13:51:54.871Z,98342.52
2022-09-28T13:54:52.097Z,98346.30
2022-09-28T13:57:25.752Z,98347.21
2022-09-28T14:00:07.126Z,98348.36
2022-09-28T14:02:43.975Z,98349.09
2022-09-28T14:05:22.663Z,98353.73
2022-09-28T14:08:34.099Z,98354.08
2022-09-28T14:11:24.455Z,98351.09
2022-09-28T14:14:04.256Z,98352.27
2022-09-28T14:16:33.933Z,98351.49
2022-09-28T14:19:06.515Z,98351.89
2022-09-28T14:21:57.827Z,98355.59
2022-09-28T14:24:33.369Z,98359.11
2022-09-28T14:27:31.888Z,98362.41
2022-09-28T14:30:10.656Z,98360.07
2022-09-28T14:32:40.188Z,98365.27
2022-09-28T14:35:18.858Z,98364.14
2022-09-28T14:38:07.986Z,98366.90
2022-09-28T14:41:14.717Z,98365.67
2022-09-28T14:43:44.480Z,98363.38
2022-09-28T14:46:11.411Z,98362.70
2022-09-28T14:48:54.286Z,98361.77
2022-09-28T14:51:29.581Z,98358.13
2022-09-28T14:54:02.507Z,98361.89
2022-09-28T14:56:38.436Z,98360.30
2022-09-28T14:59:12.422Z,98359.23
2022-09-28T15:01:39.818Z,98360.13
2022-09-28T15:04:12.342Z,98354.79
2022-09-28T15:06:46.909Z,98356.08
2022-09-28T15:09:33.466Z,98358.48
2022-09-28T15:12:12.545Z,98356.25
2022-09-28T15:15:01.729Z,98357.70
2022-09-28T15:17:39.717Z,98358.30
2022-09-28T15:20:30.005Z,98359.74
2022-09-28T15:22:58.908Z,98359.67
2022-09-28T15:25:28.226Z,98356.30
2022-09-28T15:28:05.982Z,98356.77
2022-09-28T15:30:34.674Z,98359.23
2022-09-28T15:33:22.275Z,98354.69
2022-09-28T15:36:03.021Z,98357.75
2022-09-28T15:38:33.511Z,98356.19
2022-09-28T15:41:04.873Z,98357.23
2022-09-28T15:43:33.639Z,98358.42
2022-09-28T15:46:21.299Z,98357.86
2022-09-28T15:48:58.739Z,98360.16
2022-09-28T15:51:27.842Z,98362.50
2022-09-28T15:54:11.368Z,98362.92
2022-09-28T15:56:59.719Z,98364.41
2022-09-28T15:59:34.189Z,98361.23
2022-09-28T16:02:16.842Z,98360.18
2022-09-28T16:04:54.570Z,98360.06
2022-09-28T16:07:41.058Z,98361.17
2022-09-28T16:10:13.570Z,98362.88
2022-09-28T16:12:42.590Z,98365.59
2022-09-28T16:15:19.655Z,98365.46
2022-09-28T16:18:02.128Z,98367.41
2022-09-28T16:20:33.568Z,98363.65
2022-09-28T16:23:30.515Z,98367.79
2022-09-28T16:26:13.691Z,98369.35
2022-09-28T16:28:41.856Z,98370.75
2022-09-28T16:31:14.581Z,98373.92
2022-09-28T16:33:59.050Z,98377.10
2022-09-28T16:36:29.292Z,98380.88
2022-09-28T16:38:56.478Z,98381.81
2022-09-28T16:41:26.828Z,98385.76
2022-09-28T16:44:00.869Z,98390.46
2022-09-28T16:46:34.393Z,98383.43
2022-09-28T16:49:02.551Z,98387.23
2022-09-28T16:51:29.348Z,98380.00
2022-09-28T16:54:28.392Z,98383.77
2022-09-28T16:56:55.196Z,98380.27
2022-09-28T16:59:21.865Z,98381.21
2022-09-28T17:01:48.887Z,98383.77
2022-09-28T17:04:15.711Z,98385.95
2022-09-28T17:06:42.934Z,98382.52
2022-09-28T17:09:12.970Z,98386.25
2022-09-28T17:11:40.049Z,98385.07
2022-09-28T17:14:08.273Z,98387.33
2022-09-28T17:17:07.460Z,98385.61
2022-09-28T17:19:25.296Z,98383.53
2022-09-28T17:21:52.820Z,98382.17
2022-09-28T17:24:20.277Z,98382.05
2022-09-28T17:26:49.343Z,98384.20
2022-09-28T17:29:16.279Z,98384.03
2022-09-28T17:31:44.636Z,98382.66
2022-09-28T17:34:14.638Z,98382.33
2022-09-28T17:36:41.890Z,98382.40
2022-09-28T17:39:16.984Z,98382.48
2022-09-28T17:41:44.219Z,98384.33
2022-09-28T17:44:13.323Z,98381.78
2022-09-28T17:46:48.130Z,98383.23
2022-09-28T17:49:16.045Z,98381.29
2022-09-28T17:51:42.984Z,98385.16
2022-09-28T17:54:10.471Z,98387.16
2022-09-28T17:56:38.369Z,98385.64
2022-09-28T17:59:09.253Z,98387.61
2022-09-28T18:01:38.911Z,98386.31
2022-09-28T18:04:08.240Z,98386.32
2022-09-28T18:06:36.519Z,98387.56
2022-09-28T18:09:04.188Z,98386.34
2022-09-28T18:11:32.882Z,98387.98
2022-09-28T18:14:00.305Z,98388.76
2022-09-28T18:16:28.081Z,98395.71
2022-09-28T18:18:55.115Z,98398.40
2022-09-28T18:21:21.923Z,98402.80
2022-09-28T18:23:48.876Z,98407.05
2022-09-28T18:26:18.388Z,98409.35
2022-09-28T18:28:45.812Z,98411.48
2022-09-28T18:31:15.088Z,98412.27
2022-09-28T18:33:43.177Z,98415.46
2022-09-28T18:36:10.275Z,98418.45
2022-09-28T18:38:37.869Z,98422.67
2022-09-28T18:41:16.230Z,98425.27
2022-09-28T18:43:48.523Z,98428.27
2022-09-28T18:46:17.698Z,98432.52
2022-09-28T18:48:44.467Z,98433.29
2022-09-28T18:51:12.286Z,98432.27
2022-09-28T18:53:39.959Z,98431.63
2022-09-28T18:56:08.887Z,98433.00
2022-09-28T18:58:43.293Z,98435.75
2022-09-28T19:01:35.005Z,98434.66
2022-09-28T19:04:04.971Z,98443.60
2022-09-28T19:06:33.740Z,98444.54
2022-09-28T19:09:01.015Z,98444.63
2022-09-28T19:11:29.763Z,98444.46
2022-09-28T19:13:57.266Z,98446.07
2022-09-28T19:16:52.119Z,98446.64
2022-09-28T19:19:21.106Z,98451.92
2022-09-28T19:21:48.106Z,98450.54
2022-09-28T19:24:18.122Z,98451.10
2022-09-28T19:26:46.111Z,98452.73
2022-09-28T19:29:13.960Z,98451.35
2022-09-28T19:31:42.757Z,98455.67
2022-09-28T19:34:13.297Z,98455.45
2022-09-28T19:36:42.747Z,98457.19
2022-09-28T19:39:13.386Z,98459.48
2022-09-28T19:41:44.451Z,98462.48
2022-09-28T19:44:19.118Z,98464.29
2022-09-28T19:46:46.177Z,98462.42
2022-09-28T19:49:22.029Z,98463.54
2022-09-28T19:52:11.577Z,98460.89
2022-09-28T19:54:37.884Z,98460.48
2022-09-28T19:57:08.189Z,98463.20
2022-09-28T19:59:38.489Z,98470.05
2022-09-28T20:02:06.910Z,98469.45
2022-09-28T20:04:33.811Z,98472.14
2022-09-28T20:07:01.185Z,98471.50
2022-09-28T20:09:28.350Z,98472.70
2022-09-28T20:11:55.233Z,98476.90
2022-09-28T20:14:24.483Z,98477.13
2022-09-28T20:16:53.477Z,98480.67
2022-09-28T20:19:22.444Z,98481.48
2022-09-28T20:21:49.905Z,98487.88
2022-09-28T20:24:16.977Z,98485.10
2022-09-28T20:26:45.163Z,98489.84
2022-09-28T20:29:12.316Z,98489.56
2022-09-28T20:31:39.227Z,98490.33
2022-09-28T20:34:06.900Z,98494.26
2022-09-28T20:36:33.858Z,98493.29
2022-09-28T20:39:01.967Z,98495.82
2022-09-28T20:41:34.187Z,98497.61
2022-09-28T20:44:05.272Z,98498.17
2022-09-28T20:46:36.831Z,98501.02
2022-09-28T20:49:04.698Z,98494.91
2022-09-28T20:51:32.223Z,98498.48
2022-09-28T20:53:59.781Z,98498.54
2022-09-28T20:56:29.942Z,98497.17
2022-09-28T20:58:57.112Z,98503.50
2022-09-28T21:01:29.432Z,98501.23
2022-09-28T21:03:57.488Z,98505.21
2022-09-28T21:06:29.778Z,98506.27
2022-09-28T21:08:57.125Z,98505.80
2022-09-28T21:11:25.750Z,98510.95
2022-09-28T21:13:58.052Z,98512.95
2022-09-28T21:16:26.592Z,98514.89
2022-09-28T21:18:53.511Z,98514.58
2022-09-28T21:21:21.849Z,98513.85
2022-09-28T21:23:52.730Z,98514.91
2022-09-28T21:26:25.246Z,98511.98
2022-09-28T21:28:57.703Z,98511.00
2022-09-28T21:31:29.051Z,98513.30
2022-09-28T21:33:57.138Z,98514.86
2022-09-28T21:36:24.560Z,98518.33
2022-09-28T21:38:51.438Z,98523.88
2022-09-28T21:41:18.178Z,98524.24
2022-09-28T21:43:45.359Z,98523.96
2022-09-28T21:46:12.506Z,98525.11
2022-09-28T21:48:39.994Z,98523.25
2022-09-28T21:51:09.651Z,98526.95
2022-09-28T21:53:37.691Z,98525.20
2022-09-28T21:56:08.867Z,98518.94
2022-09-28T21:58:36.400Z,98525.66
2022-09-28T22:01:31.125Z,98520.50
2022-09-28T22:03:58.539Z,98525.27
2022-09-28T22:06:27.730Z,98532.87
2022-09-28T22:08:55.134Z,98536.63
2022-09-28T22:11:23.879Z,98534.88
2022-09-28T22:13:53.584Z,98536.63
2022-09-28T22:16:23.955Z,98537.02
2022-09-28T22:18:51.008Z,98537.42
2022-09-28T22:21:21.040Z,98538.92
2022-09-28T22:23:53.008Z,98536.73
2022-09-28T22:26:27.119Z,98539.79
2022-09-28T22:29:07.277Z,98546.24
2022-09-28T22:31:38.779Z,98546.98
2022-09-28T22:34:09.130Z,98545.63
2022-09-28T22:36:36.138Z,98547.09
2022-09-28T22:39:03.156Z,98548.88
2022-09-28T22:41:31.545Z,98550.82
2022-09-28T22:43:58.544Z,98552.54
2022-09-28T22:46:27.741Z,98553.25
2022-09-28T22:48:57.677Z,98555.90
2022-09-28T22:51:26.347Z,98556.47
2022-09-28T22:53:53.152Z,98559.67
2022-09-28T22:56:19.978Z,98558.32
2022-09-28T22:58:46.994Z,98564.45
2022-09-28T23:01:17.105Z,98564.44
2022-09-28T23:03:44.364Z,98562.15
2022-09-28T23:06:13.064Z,98563.75
2022-09-28T23:08:39.850Z,98565.71
2022-09-28T23:11:06.786Z,98566.61
2022-09-28T23:13:34.599Z,98569.81
2022-09-28T23:16:03.580Z,98572.96
2022-09-28T23:18:32.774Z,98575.04
2022-09-28T23:21:02.260Z,98575.92
2022-09-28T23:23:29.648Z,98573.52
2022-09-28T23:25:56.707Z,98575.84
2022-09-28T23:28:25.657Z,98577.84
2022-09-28T23:30:53.487Z,98580.00
2022-09-28T23:33:20.897Z,98584.03
2022-09-28T23:35:48.109Z,98578.81
2022-09-28T23:38:20.097Z,98581.62
2022-09-28T23:40:47.309Z,98580.27
2022-09-28T23:43:14.775Z,98584.32
2022-09-28T23:45:44.977Z,98583.84
2022-09-28T23:48:14.317Z,98582.98
2022-09-28T23:50:42.702Z,98585.60
2022-09-28T23:53:11.410Z,98588.55
2022-09-28T23:55:38.133Z,98590.08
2022-09-28T23:58:05.167Z,98592.88
